East Homer, New York
Current Conditions -  °F | °C
As of 8:35 AM on Thursday 23 Oct 2014 (Local Time) from KN03 Reporting Station
Overcast Overcast  
Wind Chill: 39°   Ceiling: 1000
Heat Index: 43°   Visibility: 10mi
Dew Point: 39°   Wind: 6mph
Humidity: 87%   Direction: 330°NNW
Pressure: 29.96"   Gusts: NA
Location:  42.67°N, 76.1°W
Report Text: KN03 231235Z AUTO 33005KT 10SM OVC010 06/04 A2996 RMK AO2
Loading
Personal Weather Stations






























Interactive Weather Map
Tropical Storm Tracking
New forecast layout! Learn more

10-Day Weather Forecast

Advertisements
Track Severe Weather on mobile